sensor_id;sensor_type;location;lat;lon;timestamp;pressure;altitude;pressure_sealevel;temperature
39959;BMP280;25639;53.634;9.880;2023-02-15T00:01:41;150481.09;;;-7.67
39959;BMP280;25639;53.634;9.880;2023-02-15T00:04:07;150489.91;;;-7.63
39959;BMP280;25639;53.634;9.880;2023-02-15T00:06:33;150520.09;;;-7.51
39959;BMP280;25639;53.634;9.880;2023-02-15T00:09:00;150528.91;;;-7.47
39959;BMP280;25639;53.634;9.880;2023-02-15T00:11:25;150537.72;;;-7.43
39959;BMP280;25639;53.634;9.880;2023-02-15T00:14:11;150503.72;;;-7.57
39959;BMP280;25639;53.634;9.880;2023-02-15T00:16:38;150518.81;;;-7.51
39959;BMP280;25639;53.634;9.880;2023-02-15T00:19:04;150527.63;;;-7.48
39959;BMP280;25639;53.634;9.880;2023-02-15T00:21:31;150538.97;;;-7.43
39959;BMP280;25639;53.634;9.880;2023-02-15T00:23:58;150540.22;;;-7.42
39959;BMP280;25639;53.634;9.880;2023-02-15T00:26:24;150540.22;;;-7.42
39959;BMP280;25639;53.634;9.880;2023-02-15T00:28:50;150521.34;;;-7.50
39959;BMP280;25639;53.634;9.880;2023-02-15T00:31:15;150531.41;;;-7.46
39959;BMP280;25639;53.634;9.880;2023-02-15T00:33:40;150536.41;;;-7.44
39959;BMP280;25639;53.634;9.880;2023-02-15T00:36:08;150540.22;;;-7.42
39959;BMP280;25639;53.634;9.880;2023-02-15T00:38:34;150518.81;;;-7.51
39959;BMP280;25639;53.634;9.880;2023-02-15T00:41:02;150547.78;;;-7.39
39959;BMP280;25639;53.634;9.880;2023-02-15T00:43:29;150557.81;;;-7.35
39959;BMP280;25639;53.634;9.880;2023-02-15T00:45:55;150530.16;;;-7.47
39959;BMP280;25639;53.634;9.880;2023-02-15T00:48:20;150554.03;;;-7.37
39959;BMP280;25639;53.634;9.880;2023-02-15T00:50:53;150551.56;;;-7.38
39959;BMP280;25639;53.634;9.880;2023-02-15T00:53:19;150574.19;;;-7.29
39959;BMP280;25639;53.634;9.880;2023-02-15T00:55:45;150598.13;;;-7.19
39959;BMP280;25639;53.634;9.880;2023-02-15T00:58:11;150608.19;;;-7.15
39959;BMP280;25639;53.634;9.880;2023-02-15T01:00:38;150595.59;;;-7.20
39959;BMP280;25639;53.634;9.880;2023-02-15T01:03:04;150625.81;;;-7.07
39959;BMP280;25639;53.634;9.880;2023-02-15T01:05:30;150653.50;;;-6.96
39959;BMP280;25639;53.634;9.880;2023-02-15T01:07:56;150627.06;;;-7.07
39959;BMP280;25639;53.634;9.880;2023-02-15T01:10:22;150619.50;;;-7.10
39959;BMP280;25639;53.634;9.880;2023-02-15T01:12:47;150642.19;;;-7.01
39959;BMP280;25639;53.634;9.880;2023-02-15T01:15:13;150604.41;;;-7.16
39959;BMP280;25639;53.634;9.880;2023-02-15T01:17:38;150609.44;;;-7.14
39959;BMP280;25639;53.634;9.880;2023-02-15T01:20:06;150628.31;;;-7.06
39959;BMP280;25639;53.634;9.880;2023-02-15T01:22:32;150638.41;;;-7.02
39959;BMP280;25639;53.634;9.880;2023-02-15T01:24:57;150667.34;;;-6.91
39959;BMP280;25639;53.634;9.880;2023-02-15T01:27:23;150661.06;;;-6.93
39959;BMP280;25639;53.634;9.880;2023-02-15T01:29:48;150643.44;;;-7.00
39959;BMP280;25639;53.634;9.880;2023-02-15T01:32:13;150644.69;;;-7.00
39959;BMP280;25639;53.634;9.880;2023-02-15T01:34:39;150647.22;;;-6.99
39959;BMP280;25639;53.634;9.880;2023-02-15T01:37:04;150659.81;;;-6.94
39959;BMP280;25639;53.634;9.880;2023-02-15T01:39:29;150640.91;;;-7.01
39959;BMP280;25639;53.634;9.880;2023-02-15T01:41:55;150647.22;;;-6.99
39959;BMP280;25639;53.634;9.880;2023-02-15T01:44:46;150662.31;;;-6.93
39959;BMP280;25639;53.634;9.880;2023-02-15T01:47:16;150638.41;;;-7.02
39959;BMP280;25639;53.634;9.880;2023-02-15T01:49:45;150620.78;;;-7.10
39959;BMP280;25639;53.634;9.880;2023-02-15T01:52:14;150644.69;;;-7.00
39959;BMP280;25639;53.634;9.880;2023-02-15T01:54:43;150645.94;;;-6.99
39959;BMP280;25639;53.634;9.880;2023-02-15T01:57:13;150661.06;;;-6.93
39959;BMP280;25639;53.634;9.880;2023-02-15T01:59:40;150666.09;;;-6.91
39959;BMP280;25639;53.634;9.880;2023-02-15T02:02:09;150682.47;;;-6.84
39959;BMP280;25639;53.634;9.880;2023-02-15T02:04:46;150690.03;;;-6.81
39959;BMP280;25639;53.634;9.880;2023-02-15T02:07:14;150691.28;;;-6.81
39959;BMP280;25639;53.634;9.880;2023-02-15T02:09:40;150688.75;;;-6.82
39959;BMP280;25639;53.634;9.880;2023-02-15T02:12:07;150666.09;;;-6.91
39959;BMP280;25639;53.634;9.880;2023-02-15T02:14:33;150707.66;;;-6.74
39959;BMP280;25639;53.634;9.880;2023-02-15T02:31:15;150684.97;;;-6.83
39959;BMP280;25639;53.634;9.880;2023-02-15T02:34:05;150671.13;;;-6.89
39959;BMP280;25639;53.634;9.880;2023-02-15T02:36:41;150664.84;;;-6.92
39959;BMP280;25639;53.634;9.880;2023-02-15T02:41:49;150639.66;;;-7.02
39959;BMP280;25639;53.634;9.880;2023-02-15T02:44:25;150666.09;;;-6.91
39959;BMP280;25639;53.634;9.880;2023-02-15T02:47:09;150682.47;;;-6.84
39959;BMP280;25639;53.634;9.880;2023-02-15T02:49:38;150703.88;;;-6.76
39959;BMP280;25639;53.634;9.880;2023-02-15T02:52:06;150693.78;;;-6.80
39959;BMP280;25639;53.634;9.880;2023-02-15T02:54:34;150731.56;;;-6.64
39959;BMP280;25639;53.634;9.880;2023-02-15T02:57:04;150706.38;;;-6.75
39959;BMP280;25639;53.634;9.880;2023-02-15T02:59:33;150684.97;;;-6.83
39959;BMP280;25639;53.634;9.880;2023-02-15T03:02:13;150725.28;;;-6.67
39959;BMP280;25639;53.634;9.880;2023-02-15T03:04:45;150677.44;;;-6.86
39959;BMP280;25639;53.634;9.880;2023-02-15T03:07:15;150662.31;;;-6.93
39959;BMP280;25639;53.634;9.880;2023-02-15T03:09:50;150672.38;;;-6.88
39959;BMP280;25639;53.634;9.880;2023-02-15T03:12:19;150676.16;;;-6.87
39959;BMP280;25639;53.634;9.880;2023-02-15T03:14:48;150692.53;;;-6.80
39959;BMP280;25639;53.634;9.880;2023-02-15T03:17:15;150690.03;;;-6.81
39959;BMP280;25639;53.634;9.880;2023-02-15T03:19:44;150701.34;;;-6.77
39959;BMP280;25639;53.634;9.880;2023-02-15T03:22:18;150640.91;;;-7.01
39959;BMP280;25639;53.634;9.880;2023-02-15T03:24:50;150666.09;;;-6.91
39959;BMP280;25639;53.634;9.880;2023-02-15T03:27:23;150686.25;;;-6.83
39959;BMP280;25639;53.634;9.880;2023-02-15T03:29:54;150677.44;;;-6.86
39959;BMP280;25639;53.634;9.880;2023-02-15T03:32:21;150672.38;;;-6.88
39959;BMP280;25639;53.634;9.880;2023-02-15T03:34:48;150677.44;;;-6.86
39959;BMP280;25639;53.634;9.880;2023-02-15T03:37:39;150683.72;;;-6.84
39959;BMP280;25639;53.634;9.880;2023-02-15T03:40:16;150682.47;;;-6.84
39959;BMP280;25639;53.634;9.880;2023-02-15T03:43:10;150693.78;;;-6.80
39959;BMP280;25639;53.634;9.880;2023-02-15T03:45:38;150710.16;;;-6.73
39959;BMP280;25639;53.634;9.880;2023-02-15T03:48:21;150691.28;;;-6.81
39959;BMP280;25639;53.634;9.880;2023-02-15T03:50:47;150688.75;;;-6.82
39959;BMP280;25639;53.634;9.880;2023-02-15T03:53:32;150666.09;;;-6.91
39959;BMP280;25639;53.634;9.880;2023-02-15T03:55:57;150628.31;;;-7.06
39959;BMP280;25639;53.634;9.880;2023-02-15T03:58:22;150640.91;;;-7.01
39959;BMP280;25639;53.634;9.880;2023-02-15T04:01:11;150662.31;;;-6.93
39959;BMP280;25639;53.634;9.880;2023-02-15T04:04:03;150657.28;;;-6.95
39959;BMP280;25639;53.634;9.880;2023-02-15T04:06:30;150663.56;;;-6.92
39959;BMP280;25639;53.634;9.880;2023-02-15T04:08:55;150639.66;;;-7.02
39959;BMP280;25639;53.634;9.880;2023-02-15T04:11:39;150661.06;;;-6.93
39959;BMP280;25639;53.634;9.880;2023-02-15T04:14:04;150647.22;;;-6.99
39959;BMP280;25639;53.634;9.880;2023-02-15T04:16:49;150635.88;;;-7.03
39959;BMP280;25639;53.634;9.880;2023-02-15T04:19:15;150637.13;;;-7.03
39959;BMP280;25639;53.634;9.880;2023-02-15T04:21:58;150658.53;;;-6.94
39959;BMP280;25639;53.634;9.880;2023-02-15T04:24:42;150648.47;;;-6.98
39959;BMP280;25639;53.634;9.880;2023-02-15T04:27:26;150679.94;;;-6.85
39959;BMP280;25639;53.634;9.880;2023-02-15T04:29:51;150671.13;;;-6.89
39959;BMP280;25639;53.634;9.880;2023-02-15T04:32:16;150664.84;;;-6.92
39959;BMP280;25639;53.634;9.880;2023-02-15T04:34:42;150630.84;;;-7.05
39959;BMP280;25639;53.634;9.880;2023-02-15T04:37:07;150642.19;;;-7.01
39959;BMP280;25639;53.634;9.880;2023-02-15T04:39:32;150642.19;;;-7.01
39959;BMP280;25639;53.634;9.880;2023-02-15T04:41:57;150634.63;;;-7.04
39959;BMP280;25639;53.634;9.880;2023-02-15T04:44:23;150645.94;;;-6.99
39959;BMP280;25639;53.634;9.880;2023-02-15T04:46:48;150664.84;;;-6.92
39959;BMP280;25639;53.634;9.880;2023-02-15T04:49:14;150667.34;;;-6.91
39959;BMP280;25639;53.634;9.880;2023-02-15T04:51:39;150656.03;;;-6.95
39959;BMP280;25639;53.634;9.880;2023-02-15T04:54:04;150618.25;;;-7.11
39959;BMP280;25639;53.634;9.880;2023-02-15T04:56:29;150598.13;;;-7.19
39959;BMP280;25639;53.634;9.880;2023-02-15T04:58:55;150623.28;;;-7.09
39959;BMP280;25639;53.634;9.880;2023-02-15T05:01:20;150596.84;;;-7.19
39959;BMP280;25639;53.634;9.880;2023-02-15T05:03:45;150622.03;;;-7.09
39959;BMP280;25639;53.634;9.880;2023-02-15T05:06:11;150635.88;;;-7.03
39959;BMP280;25639;53.634;9.880;2023-02-15T05:08:36;150613.22;;;-7.13
39959;BMP280;25639;53.634;9.880;2023-02-15T05:11:01;150611.97;;;-7.13
39959;BMP280;25639;53.634;9.880;2023-02-15T05:13:27;150639.66;;;-7.02
39959;BMP280;25639;53.634;9.880;2023-02-15T05:15:53;150648.47;;;-6.98
39959;BMP280;25639;53.634;9.880;2023-02-15T05:18:19;150609.44;;;-7.14
39959;BMP280;25639;53.634;9.880;2023-02-15T05:20:45;150634.63;;;-7.04
39959;BMP280;25639;53.634;9.880;2023-02-15T05:23:11;150634.63;;;-7.04
39959;BMP280;25639;53.634;9.880;2023-02-15T05:25:36;150619.50;;;-7.10
39959;BMP280;25639;53.634;9.880;2023-02-15T05:28:20;150615.75;;;-7.12
39959;BMP280;25639;53.634;9.880;2023-02-15T05:30:50;150635.88;;;-7.03
39959;BMP280;25639;53.634;9.880;2023-02-15T05:33:16;150642.19;;;-7.01
39959;BMP280;25639;53.634;9.880;2023-02-15T05:35:41;150647.22;;;-6.99
39959;BMP280;25639;53.634;9.880;2023-02-15T05:38:06;150611.97;;;-7.13
39959;BMP280;25639;53.634;9.880;2023-02-15T05:40:32;150598.13;;;-7.19
39959;BMP280;25639;53.634;9.880;2023-02-15T05:42:57;150590.56;;;-7.22
39959;BMP280;25639;53.634;9.880;2023-02-15T05:45:23;150583.00;;;-7.25
39959;BMP280;25639;53.634;9.880;2023-02-15T05:47:48;150567.94;;;-7.31
39959;BMP280;25639;53.634;9.880;2023-02-15T05:50:14;150557.81;;;-7.35
39959;BMP280;25639;53.634;9.880;2023-02-15T05:52:39;150615.75;;;-7.12
39959;BMP280;25639;53.634;9.880;2023-02-15T05:55:05;150605.66;;;-7.16
39959;BMP280;25639;53.634;9.880;2023-02-15T05:57:31;150585.53;;;-7.24
39959;BMP280;25639;53.634;9.880;2023-02-15T05:59:56;150605.66;;;-7.16
39959;BMP280;25639;53.634;9.880;2023-02-15T06:02:22;150603.16;;;-7.17
39959;BMP280;25639;53.634;9.880;2023-02-15T06:04:47;150600.63;;;-7.18
39959;BMP280;25639;53.634;9.880;2023-02-15T06:07:12;150560.38;;;-7.34
39959;BMP280;25639;53.634;9.880;2023-02-15T06:09:38;150580.50;;;-7.26
39959;BMP280;25639;53.634;9.880;2023-02-15T06:12:03;150570.41;;;-7.30
39959;BMP280;25639;53.634;9.880;2023-02-15T06:14:29;150590.56;;;-7.22
39959;BMP280;25639;53.634;9.880;2023-02-15T06:16:54;150576.72;;;-7.28
39959;BMP280;25639;53.634;9.880;2023-02-15T06:19:19;150540.22;;;-7.42
39959;BMP280;25639;53.634;9.880;2023-02-15T06:21:46;150560.38;;;-7.34
39959;BMP280;25639;53.634;9.880;2023-02-15T06:24:11;150599.38;;;-7.18
39959;BMP280;25639;53.634;9.880;2023-02-15T06:26:37;150577.97;;;-7.27
39959;BMP280;25639;53.634;9.880;2023-02-15T06:29:02;150562.91;;;-7.33
39959;BMP280;25639;53.634;9.880;2023-02-15T06:31:27;150585.53;;;-7.24
39959;BMP280;25639;53.634;9.880;2023-02-15T06:33:53;150581.75;;;-7.25
39959;BMP280;25639;53.634;9.880;2023-02-15T06:36:25;150546.53;;;-7.40
39959;BMP280;25639;53.634;9.880;2023-02-15T06:38:51;150559.13;;;-7.35
39959;BMP280;25639;53.634;9.880;2023-02-15T06:41:16;150614.47;;;-7.12
39959;BMP280;25639;53.634;9.880;2023-02-15T06:43:41;150535.19;;;-7.44
39959;BMP280;25639;53.634;9.880;2023-02-15T06:46:07;150549.00;;;-7.39
39959;BMP280;25639;53.634;9.880;2023-02-15T06:48:32;150546.53;;;-7.40
39959;BMP280;25639;53.634;9.880;2023-02-15T06:50:57;150577.97;;;-7.27
39959;BMP280;25639;53.634;9.880;2023-02-15T06:53:22;150583.00;;;-7.25
39959;BMP280;25639;53.634;9.880;2023-02-15T06:55:48;150532.69;;;-7.45
39959;BMP280;25639;53.634;9.880;2023-02-15T06:58:13;150536.41;;;-7.44
39959;BMP280;25639;53.634;9.880;2023-02-15T07:00:38;150562.91;;;-7.33
39959;BMP280;25639;53.634;9.880;2023-02-15T07:03:03;150523.88;;;-7.49
39959;BMP280;25639;53.634;9.880;2023-02-15T07:05:32;150508.75;;;-7.55
39959;BMP280;25639;53.634;9.880;2023-02-15T07:07:59;150510.00;;;-7.55
39959;BMP280;25639;53.634;9.880;2023-02-15T07:10:24;150561.59;;;-7.34
39959;BMP280;25639;53.634;9.880;2023-02-15T07:12:50;150557.81;;;-7.35
39959;BMP280;25639;53.634;9.880;2023-02-15T07:15:17;150544.00;;;-7.41
39959;BMP280;25639;53.634;9.880;2023-02-15T07:17:46;150516.31;;;-7.52
39959;BMP280;25639;53.634;9.880;2023-02-15T07:20:17;150518.81;;;-7.51
39959;BMP280;25639;53.634;9.880;2023-02-15T07:22:42;150532.69;;;-7.45
39959;BMP280;25639;53.634;9.880;2023-02-15T07:25:09;150552.78;;;-7.37
39959;BMP280;25639;53.634;9.880;2023-02-15T07:27:35;150557.81;;;-7.35
39959;BMP280;25639;53.634;9.880;2023-02-15T07:30:00;150560.38;;;-7.34
39959;BMP280;25639;53.634;9.880;2023-02-15T07:32:31;150552.78;;;-7.37
39959;BMP280;25639;53.634;9.880;2023-02-15T07:34:57;150487.38;;;-7.64
39959;BMP280;25639;53.634;9.880;2023-02-15T07:37:22;150508.75;;;-7.55
39959;BMP280;25639;53.634;9.880;2023-02-15T07:39:47;150489.91;;;-7.63
39959;BMP280;25639;53.634;9.880;2023-02-15T07:42:13;150494.91;;;-7.61
39959;BMP280;25639;53.634;9.880;2023-02-15T07:44:38;150515.06;;;-7.53
39959;BMP280;25639;53.634;9.880;2023-02-15T07:47:03;150547.78;;;-7.39
39959;BMP280;25639;53.634;9.880;2023-02-15T07:49:29;150517.56;;;-7.52
39959;BMP280;25639;53.634;9.880;2023-02-15T07:51:54;150494.91;;;-7.61
39959;BMP280;25639;53.634;9.880;2023-02-15T07:54:19;150540.22;;;-7.42
39959;BMP280;25639;53.634;9.880;2023-02-15T07:56:45;150510.00;;;-7.55
39959;BMP280;25639;53.634;9.880;2023-02-15T07:59:10;150522.59;;;-7.50
39959;BMP280;25639;53.634;9.880;2023-02-15T08:01:37;150557.81;;;-7.35
39959;BMP280;25639;53.634;9.880;2023-02-15T08:04:04;150556.59;;;-7.36
39959;BMP280;25639;53.634;9.880;2023-02-15T08:06:32;150561.59;;;-7.34
39959;BMP280;25639;53.634;9.880;2023-02-15T08:08:58;150535.19;;;-7.44
39959;BMP280;25639;53.634;9.880;2023-02-15T08:11:26;150535.19;;;-7.44
39959;BMP280;25639;53.634;9.880;2023-02-15T08:14:18;150506.25;;;-7.56
39959;BMP280;25639;53.634;9.880;2023-02-15T08:16:46;150489.91;;;-7.63
39959;BMP280;25639;53.634;9.880;2023-02-15T08:21:42;150491.16;;;-7.62
39959;BMP280;25639;53.634;9.880;2023-02-15T08:24:09;150497.47;;;-7.60
39959;BMP280;25639;53.634;9.880;2023-02-15T08:26:35;150518.81;;;-7.51
39959;BMP280;25639;53.634;9.880;2023-02-15T08:29:01;150491.16;;;-7.62
39959;BMP280;25639;53.634;9.880;2023-02-15T08:31:27;150487.38;;;-7.64
39959;BMP280;25639;53.634;9.880;2023-02-15T08:33:54;150527.63;;;-7.48
39959;BMP280;25639;53.634;9.880;2023-02-15T08:36:22;150527.63;;;-7.48
39959;BMP280;25639;53.634;9.880;2023-02-15T08:38:48;150465.97;;;-7.73
39959;BMP280;25639;53.634;9.880;2023-02-15T08:41:22;150468.50;;;-7.72
39959;BMP280;25639;53.634;9.880;2023-02-15T08:43:50;150473.53;;;-7.70
39959;BMP280;25639;53.634;9.880;2023-02-15T08:46:17;150493.69;;;-7.61
39959;BMP280;25639;53.634;9.880;2023-02-15T08:48:43;150522.59;;;-7.50
39959;BMP280;25639;53.634;9.880;2023-02-15T08:51:11;150533.94;;;-7.45
39959;BMP280;25639;53.634;9.880;2023-02-15T08:53:39;150499.94;;;-7.59
39959;BMP280;25639;53.634;9.880;2023-02-15T08:56:05;150512.53;;;-7.54
39959;BMP280;25639;53.634;9.880;2023-02-15T08:58:30;150536.41;;;-7.44
39959;BMP280;25639;53.634;9.880;2023-02-15T09:00:56;150547.78;;;-7.39
39959;BMP280;25639;53.634;9.880;2023-02-15T09:03:22;150564.13;;;-7.33
39959;BMP280;25639;53.634;9.880;2023-02-15T09:05:48;150574.19;;;-7.29
39959;BMP280;25639;53.634;9.880;2023-02-15T09:08:13;150571.72;;;-7.30
39959;BMP280;25639;53.634;9.880;2023-02-15T09:10:38;150620.78;;;-7.10
39959;BMP280;25639;53.634;9.880;2023-02-15T09:13:03;150604.41;;;-7.16
39959;BMP280;25639;53.634;9.880;2023-02-15T09:15:29;150623.28;;;-7.09
39959;BMP280;25639;53.634;9.880;2023-02-15T09:17:54;150590.56;;;-7.22
39959;BMP280;25639;53.634;9.880;2023-02-15T09:20:19;150635.88;;;-7.03
39959;BMP280;25639;53.634;9.880;2023-02-15T09:22:48;150620.78;;;-7.10
39959;BMP280;25639;53.634;9.880;2023-02-15T09:25:13;150615.75;;;-7.12
39959;BMP280;25639;53.634;9.880;2023-02-15T09:27:39;150690.03;;;-6.81
39959;BMP280;25639;53.634;9.880;2023-02-15T09:30:05;150656.03;;;-6.95
39959;BMP280;25639;53.634;9.880;2023-02-15T09:32:30;150632.09;;;-7.05
39959;BMP280;25639;53.634;9.880;2023-02-15T09:34:56;150678.69;;;-6.86
39959;BMP280;25639;53.634;9.880;2023-02-15T09:37:22;150677.44;;;-6.86
39959;BMP280;25639;53.634;9.880;2023-02-15T09:39:47;150724.00;;;-6.67
39959;BMP280;25639;53.634;9.880;2023-02-15T09:50:26;150693.78;;;-6.80
39959;BMP280;25639;53.634;9.880;2023-02-15T09:56:01;150673.66;;;-6.88
39959;BMP280;25639;53.634;9.880;2023-02-15T10:10:02;150698.84;;;-6.78
39959;BMP280;25639;53.634;9.880;2023-02-15T10:26:48;150868.84;;;-6.08
39959;BMP280;25639;53.634;9.880;2023-02-15T10:29:35;150876.41;;;-6.05
39959;BMP280;25639;53.634;9.880;2023-02-15T10:32:16;150854.97;;;-6.14
39959;BMP280;25639;53.634;9.880;2023-02-15T10:37:42;150819.72;;;-6.28
39959;BMP280;25639;53.634;9.880;2023-02-15T10:46:18;150930.53;;;-5.83
39959;BMP280;25639;53.634;9.880;2023-02-15T10:52:17;150925.47;;;-5.85
39959;BMP280;25639;53.634;9.880;2023-02-15T10:57:57;151025.06;;;-5.45
39959;BMP280;25639;53.634;9.880;2023-02-15T11:00:41;151110.75;;;-5.10
39959;BMP280;25639;53.634;9.880;2023-02-15T11:03:46;151104.47;;;-5.12
39959;BMP280;25639;53.634;9.880;2023-02-15T11:06:19;151147.34;;;-4.95
39959;BMP280;25639;53.634;9.880;2023-02-15T11:08:49;151168.78;;;-4.86
39959;BMP280;25639;53.634;9.880;2023-02-15T11:11:23;151051.53;;;-5.34
39959;BMP280;25639;53.634;9.880;2023-02-15T11:13:54;151095.66;;;-5.16
39959;BMP280;25639;53.634;9.880;2023-02-15T11:16:30;151045.19;;;-5.37
39959;BMP280;25639;53.634;9.880;2023-02-15T11:19:00;151051.53;;;-5.34
39959;BMP280;25639;53.634;9.880;2023-02-15T11:21:37;151089.38;;;-5.19
39959;BMP280;25639;53.634;9.880;2023-02-15T11:24:10;151117.09;;;-5.07
39959;BMP280;25639;53.634;9.880;2023-02-15T11:26:46;151041.44;;;-5.38
39959;BMP280;25639;53.634;9.880;2023-02-15T11:29:19;151033.88;;;-5.41
39959;BMP280;25639;53.634;9.880;2023-02-15T11:31:53;151091.84;;;-5.18
39959;BMP280;25639;53.634;9.880;2023-02-15T11:37:04;151135.97;;;-5.00
39959;BMP280;25639;53.634;9.880;2023-02-15T11:39:31;151135.97;;;-5.00
39959;BMP280;25639;53.634;9.880;2023-02-15T11:42:06;151128.41;;;-5.03
39959;BMP280;25639;53.634;9.880;2023-02-15T11:44:54;151186.44;;;-4.79
39959;BMP280;25639;53.634;9.880;2023-02-15T11:47:21;151132.19;;;-5.01
39959;BMP280;25639;53.634;9.880;2023-02-15T11:49:46;151146.06;;;-4.95
39959;BMP280;25639;53.634;9.880;2023-02-15T11:52:13;151176.31;;;-4.83
39959;BMP280;25639;53.634;9.880;2023-02-15T11:54:42;151228.03;;;-4.62
39959;BMP280;25639;53.634;9.880;2023-02-15T11:57:27;151306.25;;;-4.30
39959;BMP280;25639;53.634;9.880;2023-02-15T12:00:02;151361.78;;;-4.08
39959;BMP280;25639;53.634;9.880;2023-02-15T12:02:31;151387.00;;;-3.97
39959;BMP280;25639;53.634;9.880;2023-02-15T12:05:07;151413.50;;;-3.87
39959;BMP280;25639;53.634;9.880;2023-02-15T12:07:37;151455.16;;;-3.70
39959;BMP280;25639;53.634;9.880;2023-02-15T12:10:17;151479.13;;;-3.60
39959;BMP280;25639;53.634;9.880;2023-02-15T12:12:45;151505.66;;;-3.49
39959;BMP280;25639;53.634;9.880;2023-02-15T12:15:12;151530.91;;;-3.39
39959;BMP280;25639;53.634;9.880;2023-02-15T12:17:55;151546.03;;;-3.33
39959;BMP280;25639;53.634;9.880;2023-02-15T12:20:25;151588.97;;;-3.15
39959;BMP280;25639;53.634;9.880;2023-02-15T12:22:58;151620.53;;;-3.02
39959;BMP280;25639;53.634;9.880;2023-02-15T12:25:37;151533.44;;;-3.38
39959;BMP280;25639;53.634;9.880;2023-02-15T12:28:22;151587.72;;;-3.16
39959;BMP280;25639;53.634;9.880;2023-02-15T12:30:49;151624.34;;;-3.01
39959;BMP280;25639;53.634;9.880;2023-02-15T12:33:26;151607.94;;;-3.08
39959;BMP280;25639;53.634;9.880;2023-02-15T12:36:15;151635.72;;;-2.96
39959;BMP280;25639;53.634;9.880;2023-02-15T12:38:42;151669.84;;;-2.82
39959;BMP280;25639;53.634;9.880;2023-02-15T12:41:25;151658.44;;;-2.87
39959;BMP280;25639;53.634;9.880;2023-02-15T12:44:09;151653.41;;;-2.89
39959;BMP280;25639;53.634;9.880;2023-02-15T12:46:40;151674.88;;;-2.80
39959;BMP280;25639;53.634;9.880;2023-02-15T12:56:47;151695.06;;;-2.72
39959;BMP280;25639;53.634;9.880;2023-02-15T12:59:13;151730.44;;;-2.58
39959;BMP280;25639;53.634;9.880;2023-02-15T13:01:45;151793.63;;;-2.32
39959;BMP280;25639;53.634;9.880;2023-02-15T13:06:51;151813.81;;;-2.24
39959;BMP280;25639;53.634;9.880;2023-02-15T13:09:20;151764.56;;;-2.44
39959;BMP280;25639;53.634;9.880;2023-02-15T13:11:49;151773.41;;;-2.40
39959;BMP280;25639;53.634;9.880;2023-02-15T13:14:47;151859.34;;;-2.05
39959;BMP280;25639;53.634;9.880;2023-02-15T13:17:16;151861.84;;;-2.04
39959;BMP280;25639;53.634;9.880;2023-02-15T13:19:52;151903.59;;;-1.87
39959;BMP280;25639;53.634;9.880;2023-02-15T13:22:37;151933.94;;;-1.75
39959;BMP280;25639;53.634;9.880;2023-02-15T13:27:46;151892.19;;;-1.92
39959;BMP280;25639;53.634;9.880;2023-02-15T13:30:22;151893.44;;;-1.92
39959;BMP280;25639;53.634;9.880;2023-02-15T13:32:52;151902.28;;;-1.88
39959;BMP280;25639;53.634;9.880;2023-02-15T13:35:20;151919.97;;;-1.81
39959;BMP280;25639;53.634;9.880;2023-02-15T13:38:07;151989.53;;;-1.52
39959;BMP280;25639;53.634;9.880;2023-02-15T13:46:10;152091.94;;;-1.11
39959;BMP280;25639;53.634;9.880;2023-02-15T13:51:41;152072.97;;;-1.19
39959;BMP280;25639;53.634;9.880;2023-02-15T13:54:29;152029.97;;;-1.36
39959;BMP280;25639;53.634;9.880;2023-02-15T14:00:11;152036.31;;;-1.33
39959;BMP280;25639;53.634;9.880;2023-02-15T14:05:31;152097.03;;;-1.09
39959;BMP280;25639;53.634;9.880;2023-02-15T14:16:03;152057.81;;;-1.25
39959;BMP280;25639;53.634;9.880;2023-02-15T14:18:46;152047.69;;;-1.29
39959;BMP280;25639;53.634;9.880;2023-02-15T14:21:37;152046.44;;;-1.29
39959;BMP280;25639;53.634;9.880;2023-02-15T14:24:33;152003.44;;;-1.47
39959;BMP280;25639;53.634;9.880;2023-02-15T14:27:21;152013.56;;;-1.43
39959;BMP280;25639;53.634;9.880;2023-02-15T14:29:59;151961.72;;;-1.64
39959;BMP280;25639;53.634;9.880;2023-02-15T14:32:33;152013.56;;;-1.43
39959;BMP280;25639;53.634;9.880;2023-02-15T14:35:03;151999.66;;;-1.48
39959;BMP280;25639;53.634;9.880;2023-02-15T14:40:08;152009.78;;;-1.44
39959;BMP280;25639;53.634;9.880;2023-02-15T14:46:27;152009.78;;;-1.44
39959;BMP280;25639;53.634;9.880;2023-02-15T14:48:59;152029.97;;;-1.36
39959;BMP280;25639;53.634;9.880;2023-02-15T14:56:42;151993.31;;;-1.51
39959;BMP280;25639;53.634;9.880;2023-02-15T14:59:22;152013.56;;;-1.43
39959;BMP280;25639;53.634;9.880;2023-02-15T15:02:03;152005.97;;;-1.46
39959;BMP280;25639;53.634;9.880;2023-02-15T15:04:29;152018.63;;;-1.41
39959;BMP280;25639;53.634;9.880;2023-02-15T15:07:09;152032.53;;;-1.35
39959;BMP280;25639;53.634;9.880;2023-02-15T15:09:40;152009.78;;;-1.44
39959;BMP280;25639;53.634;9.880;2023-02-15T15:12:36;151960.47;;;-1.64
39959;BMP280;25639;53.634;9.880;2023-02-15T15:15:04;152002.16;;;-1.47
39959;BMP280;25639;53.634;9.880;2023-02-15T15:20:04;151998.38;;;-1.49
39959;BMP280;25639;53.634;9.880;2023-02-15T15:22:32;151995.88;;;-1.50
39959;BMP280;25639;53.634;9.880;2023-02-15T15:25:11;151966.78;;;-1.62
39959;BMP280;25639;53.634;9.880;2023-02-15T15:27:58;151987.03;;;-1.54
39959;BMP280;25639;53.634;9.880;2023-02-15T15:41:30;151903.59;;;-1.87
39959;BMP280;25639;53.634;9.880;2023-02-15T15:49:16;151865.66;;;-2.03
39959;BMP280;25639;53.634;9.880;2023-02-15T15:51:44;151879.53;;;-1.97
39959;BMP280;25639;53.634;9.880;2023-02-15T15:54:21;151890.94;;;-1.93
39959;BMP280;25639;53.634;9.880;2023-02-15T15:56:59;151807.53;;;-2.26
39959;BMP280;25639;53.634;9.880;2023-02-15T15:59:29;151796.13;;;-2.31
39959;BMP280;25639;53.634;9.880;2023-02-15T16:01:56;151818.88;;;-2.22
39959;BMP280;25639;53.634;9.880;2023-02-15T16:04:31;151764.56;;;-2.44
39959;BMP280;25639;53.634;9.880;2023-02-15T16:06:58;151764.56;;;-2.44
39959;BMP280;25639;53.634;9.880;2023-02-15T16:09:37;151744.38;;;-2.52
39959;BMP280;25639;53.634;9.880;2023-02-15T16:12:03;151741.81;;;-2.53
39959;BMP280;25639;53.634;9.880;2023-02-15T16:14:35;151701.41;;;-2.70
39959;BMP280;25639;53.634;9.880;2023-02-15T16:17:04;151683.72;;;-2.77
39959;BMP280;25639;53.634;9.880;2023-02-15T16:19:34;151673.56;;;-2.81
39959;BMP280;25639;53.634;9.880;2023-02-15T16:22:02;151643.31;;;-2.93
39959;BMP280;25639;53.634;9.880;2023-02-15T16:24:56;151607.94;;;-3.08
39959;BMP280;25639;53.634;9.880;2023-02-15T16:27:33;151578.88;;;-3.19
39959;BMP280;25639;53.634;9.880;2023-02-15T16:30:32;151572.56;;;-3.22
39959;BMP280;25639;53.634;9.880;2023-02-15T16:33:11;151525.88;;;-3.41
39959;BMP280;25639;53.634;9.880;2023-02-15T16:35:55;151570.06;;;-3.23